sensor_id;sensor_type;location;lat;lon;timestamp;pressure;altitude;pressure_sealevel;temperature;humidity
74065;BME280;62421;51.412;5.432;2023-07-28T00:00:56;100392.78;;;16.67;100.00
74065;BME280;62421;51.412;5.432;2023-07-28T00:03:21;100406.50;;;16.66;100.00
74065;BME280;62421;51.412;5.432;2023-07-28T00:05:47;100399.22;;;16.66;100.00
74065;BME280;62421;51.412;5.432;2023-07-28T00:08:12;100401.06;;;16.66;100.00
74065;BME280;62421;51.412;5.432;2023-07-28T00:10:41;100392.94;;;16.66;100.00
74065;BME280;62421;51.412;5.432;2023-07-28T00:13:07;100410.88;;;16.67;100.00
74065;BME280;62421;51.412;5.432;2023-07-28T00:15:33;100399.34;;;16.65;100.00
74065;BME280;62421;51.412;5.432;2023-07-28T00:17:58;100401.22;;;16.64;100.00
74065;BME280;62421;51.412;5.432;2023-07-28T00:20:25;100399.22;;;16.66;100.00
74065;BME280;62421;51.412;5.432;2023-07-28T00:22:51;100401.91;;;16.66;100.00
74065;BME280;62421;51.412;5.432;2023-07-28T00:25:17;100400.94;;;16.67;100.00
74065;BME280;62421;51.412;5.432;2023-07-28T00:27:42;100392.94;;;16.66;100.00
74065;BME280;62421;51.412;5.432;2023-07-28T00:30:09;100390.22;;;16.66;100.00
74065;BME280;62421;51.412;5.432;2023-07-28T00:32:34;100393.78;;;16.66;100.00
74065;BME280;62421;51.412;5.432;2023-07-28T00:35:00;100392.94;;;16.66;100.00
74065;BME280;62421;51.412;5.432;2023-07-28T00:37:25;100389.22;;;16.67;100.00
74065;BME280;62421;51.412;5.432;2023-07-28T00:39:50;100391.91;;;16.67;100.00
74065;BME280;62421;51.412;5.432;2023-07-28T00:42:16;100388.38;;;16.66;100.00
74065;BME280;62421;51.412;5.432;2023-07-28T00:44:41;100396.50;;;16.66;100.00
74065;BME280;62421;51.412;5.432;2023-07-28T00:47:06;100387.53;;;16.66;100.00
74065;BME280;62421;51.412;5.432;2023-07-28T00:49:32;100391.91;;;16.67;100.00
74065;BME280;62421;51.412;5.432;2023-07-28T00:51:57;100394.81;;;16.65;100.00
74065;BME280;62421;51.412;5.432;2023-07-28T00:54:23;100396.50;;;16.66;100.00
74065;BME280;62421;51.412;5.432;2023-07-28T00:56:49;100388.38;;;16.66;100.00
74065;BME280;62421;51.412;5.432;2023-07-28T00:59:14;100385.66;;;16.66;100.00
74065;BME280;62421;51.412;5.432;2023-07-28T01:01:40;100389.22;;;16.67;100.00
74065;BME280;62421;51.412;5.432;2023-07-28T01:04:05;100388.22;;;16.68;100.00
74065;BME280;62421;51.412;5.432;2023-07-28T01:07:01;100395.66;;;16.66;100.00
74065;BME280;62421;51.412;5.432;2023-07-28T01:09:34;100394.47;;;16.68;100.00
74065;BME280;62421;51.412;5.432;2023-07-28T01:12:07;100390.94;;;16.68;100.00
74065;BME280;62421;51.412;5.432;2023-07-28T01:14:33;100401.63;;;16.69;100.00
74065;BME280;62421;51.412;5.432;2023-07-28T01:16:58;100392.47;;;16.70;100.00
74065;BME280;62421;51.412;5.432;2023-07-28T01:19:24;100392.31;;;16.72;100.00
74065;BME280;62421;51.412;5.432;2023-07-28T01:27:39;100397.03;;;16.70;100.00
74065;BME280;62421;51.412;5.432;2023-07-28T01:30:08;100399.75;;;16.70;100.00
74065;BME280;62421;51.412;5.432;2023-07-28T01:32:35;100398.03;;;16.69;100.00
74065;BME280;62421;51.412;5.432;2023-07-28T01:35:02;100399.91;;;16.68;100.00
74065;BME280;62421;51.412;5.432;2023-07-28T01:37:28;100389.22;;;16.67;100.00
74065;BME280;62421;51.412;5.432;2023-07-28T01:39:53;100385.66;;;16.66;100.00
74065;BME280;62421;51.412;5.432;2023-07-28T01:42:19;100382.78;;;16.68;100.00
74065;BME280;62421;51.412;5.432;2023-07-28T01:44:45;100391.06;;;16.66;100.00
74065;BME280;62421;51.412;5.432;2023-07-28T01:47:10;100391.06;;;16.66;100.00
74065;BME280;62421;51.412;5.432;2023-07-28T01:49:35;100391.06;;;16.66;100.00
74065;BME280;62421;51.412;5.432;2023-07-28T01:52:01;100399.06;;;16.68;100.00
74065;BME280;62421;51.412;5.432;2023-07-28T01:54:26;100393.63;;;16.68;100.00
74065;BME280;62421;51.412;5.432;2023-07-28T01:56:51;100394.47;;;16.68;100.00
74065;BME280;62421;51.412;5.432;2023-07-28T01:59:17;100390.09;;;16.67;100.00
74065;BME280;62421;51.412;5.432;2023-07-28T02:01:42;100392.78;;;16.67;100.00
74065;BME280;62421;51.412;5.432;2023-07-28T02:04:08;100387.19;;;16.69;100.00
74065;BME280;62421;51.412;5.432;2023-07-28T02:06:33;100393.63;;;16.68;100.00
74065;BME280;62421;51.412;5.432;2023-07-28T02:08:59;100392.63;;;16.69;100.00
74065;BME280;62421;51.412;5.432;2023-07-28T02:11:24;100385.34;;;16.69;100.00
74065;BME280;62421;51.412;5.432;2023-07-28T02:13:49;100393.50;;;16.69;100.00
74065;BME280;62421;51.412;5.432;2023-07-28T02:16:15;100385.34;;;16.69;100.00
74065;BME280;62421;51.412;5.432;2023-07-28T02:18:40;100392.47;;;16.70;100.00
74065;BME280;62421;51.412;5.432;2023-07-28T02:21:08;100389.75;;;16.70;100.00
74065;BME280;62421;51.412;5.432;2023-07-28T02:23:33;100385.03;;;16.72;100.00
74065;BME280;62421;51.412;5.432;2023-07-28T02:25:59;100397.56;;;16.73;100.00
74065;BME280;62421;51.412;5.432;2023-07-28T02:28:24;100398.44;;;16.74;100.00
74065;BME280;62421;51.412;5.432;2023-07-28T02:30:49;100400.13;;;16.75;100.00
74065;BME280;62421;51.412;5.432;2023-07-28T02:33:15;100402.97;;;16.73;100.00
74065;BME280;62421;51.412;5.432;2023-07-28T02:35:40;100395.53;;;16.75;100.00
74065;BME280;62421;51.412;5.432;2023-07-28T02:38:05;100402.81;;;16.75;100.00
74065;BME280;62421;51.412;5.432;2023-07-28T02:40:32;100401.97;;;16.74;100.00
74065;BME280;62421;51.412;5.432;2023-07-28T02:42:58;100408.25;;;16.75;100.00
74065;BME280;62421;51.412;5.432;2023-07-28T02:45:23;100411.81;;;16.75;100.00
74065;BME280;62421;51.412;5.432;2023-07-28T02:47:50;100411.81;;;16.75;100.00
74065;BME280;62421;51.412;5.432;2023-07-28T02:50:15;100412.69;;;16.76;100.00
74065;BME280;62421;51.412;5.432;2023-07-28T02:52:41;100416.22;;;16.76;100.00
74065;BME280;62421;51.412;5.432;2023-07-28T02:55:06;100403.66;;;16.75;100.00
74065;BME280;62421;51.412;5.432;2023-07-28T02:57:32;100408.09;;;16.76;100.00
74065;BME280;62421;51.412;5.432;2023-07-28T02:59:57;100411.81;;;16.75;100.00
74065;BME280;62421;51.412;5.432;2023-07-28T03:02:23;100418.09;;;16.76;100.00
74065;BME280;62421;51.412;5.432;2023-07-28T03:04:49;100424.38;;;16.76;100.00
74065;BME280;62421;51.412;5.432;2023-07-28T03:07:14;100433.34;;;16.77;100.00
74065;BME280;62421;51.412;5.432;2023-07-28T03:09:40;100425.22;;;16.77;100.00
74065;BME280;62421;51.412;5.432;2023-07-28T03:12:05;100423.53;;;16.76;100.00
74065;BME280;62421;51.412;5.432;2023-07-28T03:14:31;100417.06;;;16.77;100.00
74065;BME280;62421;51.412;5.432;2023-07-28T03:16:57;100423.53;;;16.76;100.00
74065;BME280;62421;51.412;5.432;2023-07-28T03:19:22;100420.63;;;16.77;100.00
74065;BME280;62421;51.412;5.432;2023-07-28T03:21:48;100424.38;;;16.76;100.00
74065;BME280;62421;51.412;5.432;2023-07-28T03:24:13;100426.06;;;16.77;100.00
74065;BME280;62421;51.412;5.432;2023-07-28T03:26:38;100418.78;;;16.78;100.00
74065;BME280;62421;51.412;5.432;2023-07-28T03:29:04;100431.31;;;16.79;100.00
74065;BME280;62421;51.412;5.432;2023-07-28T03:31:29;100417.91;;;16.77;100.00
74065;BME280;62421;51.412;5.432;2023-07-28T03:33:55;100422.34;;;16.78;100.00
74065;BME280;62421;51.412;5.432;2023-07-28T03:36:20;100434.88;;;16.79;100.00
74065;BME280;62421;51.412;5.432;2023-07-28T03:38:46;100435.06;;;16.78;100.00
74065;BME280;62421;51.412;5.432;2023-07-28T03:41:12;100433.19;;;16.78;100.00
74065;BME280;62421;51.412;5.432;2023-07-28T03:43:38;100440.47;;;16.78;100.00
74065;BME280;62421;51.412;5.432;2023-07-28T03:46:03;100451.47;;;16.76;100.00
74065;BME280;62421;51.412;5.432;2023-07-28T03:48:29;100449.47;;;16.78;100.00
74065;BME280;62421;51.412;5.432;2023-07-28T03:50:54;100448.63;;;16.78;100.00
74065;BME280;62421;51.412;5.432;2023-07-28T03:53:19;100452.06;;;16.80;100.00
74065;BME280;62421;51.412;5.432;2023-07-28T03:55:45;100449.34;;;16.80;100.00
74065;BME280;62421;51.412;5.432;2023-07-28T03:58:10;100453.75;;;16.81;100.00
74065;BME280;62421;51.412;5.432;2023-07-28T04:00:36;100444.78;;;16.81;100.00
74065;BME280;62421;51.412;5.432;2023-07-28T04:03:01;100460.00;;;16.82;100.00
74065;BME280;62421;51.412;5.432;2023-07-28T04:05:26;100449.34;;;16.80;100.00
74065;BME280;62421;51.412;5.432;2023-07-28T04:07:52;100453.75;;;16.81;100.00
74065;BME280;62421;51.412;5.432;2023-07-28T04:10:17;100456.47;;;16.81;100.00
74065;BME280;62421;51.412;5.432;2023-07-28T04:12:42;100448.19;;;16.83;100.00
74065;BME280;62421;51.412;5.432;2023-07-28T04:15:08;100452.75;;;16.82;100.00
74065;BME280;62421;51.412;5.432;2023-07-28T04:17:33;100450.03;;;16.82;100.00
74065;BME280;62421;51.412;5.432;2023-07-28T04:19:59;100440.03;;;16.83;100.00
74065;BME280;62421;51.412;5.432;2023-07-28T04:22:24;100451.59;;;16.85;100.00
74065;BME280;62421;51.412;5.432;2023-07-28T04:24:50;100443.44;;;16.85;100.00
74065;BME280;62421;51.412;5.432;2023-07-28T04:27:15;100450.56;;;16.86;100.00
74065;BME280;62421;51.412;5.432;2023-07-28T04:29:41;100447.69;;;16.87;100.00
74065;BME280;62421;51.412;5.432;2023-07-28T04:32:06;100445.81;;;16.88;100.00
74065;BME280;62421;51.412;5.432;2023-07-28T04:34:35;100443.25;;;16.86;100.00
74065;BME280;62421;51.412;5.432;2023-07-28T04:37:00;100445.97;;;16.86;100.00
74065;BME280;62421;51.412;5.432;2023-07-28T04:39:26;100443.13;;;16.88;100.00
74065;BME280;62421;51.412;5.432;2023-07-28T04:41:51;100448.38;;;16.89;100.00
74065;BME280;62421;51.412;5.432;2023-07-28T04:44:17;100455.50;;;16.90;100.00
74065;BME280;62421;51.412;5.432;2023-07-28T04:46:43;100441.09;;;16.90;100.00
74065;BME280;62421;51.412;5.432;2023-07-28T04:49:08;100441.09;;;16.90;100.00
74065;BME280;62421;51.412;5.432;2023-07-28T04:51:33;100458.06;;;16.92;100.00
74065;BME280;62421;51.412;5.432;2023-07-28T04:53:59;100453.66;;;16.91;100.00
74065;BME280;62421;51.412;5.432;2023-07-28T04:56:24;100452.50;;;16.93;100.00
74065;BME280;62421;51.412;5.432;2023-07-28T04:58:49;100457.06;;;16.93;100.00
74065;BME280;62421;51.412;5.432;2023-07-28T05:01:15;100459.59;;;16.94;100.00
74065;BME280;62421;51.412;5.432;2023-07-28T05:03:41;100467.59;;;16.96;100.00
74065;BME280;62421;51.412;5.432;2023-07-28T05:06:06;100460.16;;;16.98;100.00
74065;BME280;62421;51.412;5.432;2023-07-28T05:08:32;100468.13;;;16.99;100.00
74065;BME280;62421;51.412;5.432;2023-07-28T05:10:57;100471.69;;;17.00;100.00
74065;BME280;62421;51.412;5.432;2023-07-28T05:13:22;100464.41;;;17.01;100.00
74065;BME280;62421;51.412;5.432;2023-07-28T05:15:48;100470.38;;;17.04;100.00
74065;BME280;62421;51.412;5.432;2023-07-28T05:18:13;100474.06;;;17.03;100.00
74065;BME280;62421;51.412;5.432;2023-07-28T05:20:38;100480.19;;;17.05;100.00
74065;BME280;62421;51.412;5.432;2023-07-28T05:23:04;100483.59;;;17.07;100.00
74065;BME280;62421;51.412;5.432;2023-07-28T05:25:29;100484.44;;;17.08;100.00
74065;BME280;62421;51.412;5.432;2023-07-28T05:27:55;100485.13;;;17.10;100.00
74065;BME280;62421;51.412;5.432;2023-07-28T05:30:20;100489.56;;;17.11;100.00
74065;BME280;62421;51.412;5.432;2023-07-28T05:32:47;100494.66;;;17.14;100.00
74065;BME280;62421;51.412;5.432;2023-07-28T05:35:12;100491.66;;;17.17;100.00
74065;BME280;62421;51.412;5.432;2023-07-28T05:37:38;100495.91;;;17.19;100.00
74065;BME280;62421;51.412;5.432;2023-07-28T05:40:03;100504.41;;;17.25;100.00
74065;BME280;62421;51.412;5.432;2023-07-28T05:42:29;100498.50;;;17.29;100.00
74065;BME280;62421;51.412;5.432;2023-07-28T05:44:54;100498.72;;;17.36;100.00
74065;BME280;62421;51.412;5.432;2023-07-28T05:47:20;100506.22;;;17.42;100.00
74065;BME280;62421;51.412;5.432;2023-07-28T05:49:46;100502.84;;;17.48;100.00
74065;BME280;62421;51.412;5.432;2023-07-28T05:52:11;100503.06;;;17.55;100.00
74065;BME280;62421;51.412;5.432;2023-07-28T05:54:37;100509.56;;;17.62;100.00
74065;BME280;62421;51.412;5.432;2023-07-28T05:57:02;100513.19;;;17.71;100.00
74065;BME280;62421;51.412;5.432;2023-07-28T05:59:28;100514.22;;;17.78;100.00
74065;BME280;62421;51.412;5.432;2023-07-28T06:01:53;100511.88;;;17.83;100.00
74065;BME280;62421;51.412;5.432;2023-07-28T06:04:18;100506.84;;;17.88;100.00
74065;BME280;62421;51.412;5.432;2023-07-28T06:06:44;100508.03;;;17.94;100.00
74065;BME280;62421;51.412;5.432;2023-07-28T06:09:09;100518.09;;;18.01;100.00
74065;BME280;62421;51.412;5.432;2023-07-28T06:11:35;100512.84;;;18.08;100.00
74065;BME280;62421;51.412;5.432;2023-07-28T06:14:00;100511.66;;;18.11;100.00
74065;BME280;62421;51.412;5.432;2023-07-28T06:16:25;100507.94;;;18.12;100.00
74065;BME280;62421;51.412;5.432;2023-07-28T06:18:51;100503.34;;;18.12;100.00
74065;BME280;62421;51.412;5.432;2023-07-28T06:21:16;100512.19;;;18.14;100.00
74065;BME280;62421;51.412;5.432;2023-07-28T06:23:41;100511.16;;;18.15;100.00
74065;BME280;62421;51.412;5.432;2023-07-28T06:26:07;100518.31;;;18.16;100.00
74065;BME280;62421;51.412;5.432;2023-07-28T06:28:32;100521.22;;;18.23;100.00
74065;BME280;62421;51.412;5.432;2023-07-28T06:30:58;100523.44;;;18.28;100.00
74065;BME280;62421;51.412;5.432;2023-07-28T06:33:28;100519.88;;;18.27;100.00
74065;BME280;62421;51.412;5.432;2023-07-28T06:35:53;100525.31;;;18.27;100.00
74065;BME280;62421;51.412;5.432;2023-07-28T06:38:18;100516.47;;;18.25;100.00
74065;BME280;62421;51.412;5.432;2023-07-28T06:40:44;100528.19;;;18.26;100.00
74065;BME280;62421;51.412;5.432;2023-07-28T06:43:09;100522.75;;;18.26;100.00
74065;BME280;62421;51.412;5.432;2023-07-28T06:45:35;100533.47;;;18.27;100.00
74065;BME280;62421;51.412;5.432;2023-07-28T06:48:00;100521.91;;;18.25;100.00
74065;BME280;62421;51.412;5.432;2023-07-28T06:50:25;100530.06;;;18.25;100.00
74065;BME280;62421;51.412;5.432;2023-07-28T06:52:51;100528.03;;;18.27;100.00
74065;BME280;62421;51.412;5.432;2023-07-28T06:55:17;100527.69;;;18.30;100.00
74065;BME280;62421;51.412;5.432;2023-07-28T06:57:42;100524.66;;;18.33;100.00
74065;BME280;62421;51.412;5.432;2023-07-28T07:00:08;100534.22;;;18.46;100.00
74065;BME280;62421;51.412;5.432;2023-07-28T07:02:35;100539.50;;;18.63;100.00
74065;BME280;62421;51.412;5.432;2023-07-28T07:05:00;100537.34;;;18.83;100.00
74065;BME280;62421;51.412;5.432;2023-07-28T07:07:26;100527.16;;;19.02;100.00
74065;BME280;62421;51.412;5.432;2023-07-28T07:09:52;100534.13;;;19.13;100.00
74065;BME280;62421;51.412;5.432;2023-07-28T07:12:17;100540.56;;;19.20;100.00
74065;BME280;62421;51.412;5.432;2023-07-28T07:14:42;100543.13;;;19.21;100.00
74065;BME280;62421;51.412;5.432;2023-07-28T07:17:08;100550.44;;;19.13;100.00
74065;BME280;62421;51.412;5.432;2023-07-28T07:19:33;100546.53;;;18.99;100.00
74065;BME280;62421;51.412;5.432;2023-07-28T07:21:58;100546.19;;;18.94;100.00
74065;BME280;62421;51.412;5.432;2023-07-28T07:24:24;100542.78;;;19.00;100.00
74065;BME280;62421;51.412;5.432;2023-07-28T07:26:49;100553.69;;;19.08;100.00
74065;BME280;62421;51.412;5.432;2023-07-28T07:29:16;100550.78;;;19.10;100.00
74065;BME280;62421;51.412;5.432;2023-07-28T07:31:41;100550.97;;;19.08;100.00
74065;BME280;62421;51.412;5.432;2023-07-28T07:34:06;100559.28;;;19.07;100.00
74065;BME280;62421;51.412;5.432;2023-07-28T07:36:32;100559.13;;;19.08;100.00
74065;BME280;62421;51.412;5.432;2023-07-28T07:38:58;100566.25;;;19.09;100.00
74065;BME280;62421;51.412;5.432;2023-07-28T07:41:23;100562.03;;;19.15;100.00
74065;BME280;62421;51.412;5.432;2023-07-28T07:43:52;100565.75;;;19.22;100.00
74065;BME280;62421;51.412;5.432;2023-07-28T07:46:18;100564.22;;;19.28;100.00
74065;BME280;62421;51.412;5.432;2023-07-28T07:48:47;100567.78;;;19.36;100.00
74065;BME280;62421;51.412;5.432;2023-07-28T07:51:12;100572.19;;;19.46;100.00
74065;BME280;62421;51.412;5.432;2023-07-28T07:53:37;100573.41;;;19.51;100.00
74065;BME280;62421;51.412;5.432;2023-07-28T07:56:03;100567.59;;;19.54;100.00
74065;BME280;62421;51.412;5.432;2023-07-28T07:58:29;100566.59;;;19.55;100.00
74065;BME280;62421;51.412;5.432;2023-07-28T08:00:55;100574.38;;;19.67;100.00
74065;BME280;62421;51.412;5.432;2023-07-28T08:03:21;100577.97;;;19.75;100.00
74065;BME280;62421;51.412;5.432;2023-07-28T08:05:47;100581.00;;;19.80;100.00
74065;BME280;62421;51.412;5.432;2023-07-28T08:08:13;100573.50;;;19.82;100.00
74065;BME280;62421;51.412;5.432;2023-07-28T08:10:40;100576.25;;;19.82;100.00
74065;BME280;62421;51.412;5.432;2023-07-28T08:13:05;100579.81;;;19.83;100.00
74065;BME280;62421;51.412;5.432;2023-07-28T08:15:31;100583.03;;;19.87;100.00
74065;BME280;62421;51.412;5.432;2023-07-28T08:17:56;100572.66;;;19.90;100.00
74065;BME280;62421;51.412;5.432;2023-07-28T08:20:22;100583.53;;;19.98;100.00
74065;BME280;62421;51.412;5.432;2023-07-28T08:22:47;100581.25;;;20.10;100.00
74065;BME280;62421;51.412;5.432;2023-07-28T08:25:12;100576.78;;;20.17;100.00
74065;BME280;62421;51.412;5.432;2023-07-28T08:27:38;100584.75;;;20.35;100.00
74065;BME280;62421;51.412;5.432;2023-07-28T08:30:03;100591.31;;;20.49;100.00
74065;BME280;62421;51.412;5.432;2023-07-28T08:32:30;100592.47;;;20.63;100.00
74065;BME280;62421;51.412;5.432;2023-07-28T08:34:56;100589.63;;;20.79;100.00
74065;BME280;62421;51.412;5.432;2023-07-28T08:37:21;100586.13;;;20.94;100.00
74065;BME280;62421;51.412;5.432;2023-07-28T08:39:47;100594.72;;;21.05;100.00
74065;BME280;62421;51.412;5.432;2023-07-28T08:42:12;100598.34;;;21.06;100.00
74065;BME280;62421;51.412;5.432;2023-07-28T08:44:37;100596.19;;;21.16;100.00
74065;BME280;62421;51.412;5.432;2023-07-28T08:47:04;100602.06;;;21.28;100.00
74065;BME280;62421;51.412;5.432;2023-07-28T08:49:30;100594.66;;;21.37;100.00
74065;BME280;62421;51.412;5.432;2023-07-28T08:51:59;100597.22;;;21.38;100.00
74065;BME280;62421;51.412;5.432;2023-07-28T08:54:25;100597.75;;;21.34;100.00
74065;BME280;62421;51.412;5.432;2023-07-28T08:56:50;100598.84;;;21.24;100.00
74065;BME280;62421;51.412;5.432;2023-07-28T08:59:22;100598.44;;;21.13;100.00
74065;BME280;62421;51.412;5.432;2023-07-28T09:01:50;100596.44;;;21.06;100.00
74065;BME280;62421;51.412;5.432;2023-07-28T09:04:16;100604.97;;;21.03;100.00
74065;BME280;62421;51.412;5.432;2023-07-28T09:06:45;100603.84;;;20.98;100.00
74065;BME280;62421;51.412;5.432;2023-07-28T09:09:10;100600.56;;;21.02;100.00
74065;BME280;62421;51.412;5.432;2023-07-28T09:11:47;100603.25;;;21.11;100.00
74065;BME280;62421;51.412;5.432;2023-07-28T09:14:14;100599.03;;;21.23;100.00
74065;BME280;62421;51.412;5.432;2023-07-28T09:16:41;100603.00;;;21.43;100.00
74065;BME280;62421;51.412;5.432;2023-07-28T09:19:08;100594.69;;;21.75;100.00
74065;BME280;62421;51.412;5.432;2023-07-28T09:21:33;100595.16;;;22.08;100.00
74065;BME280;62421;51.412;5.432;2023-07-28T09:24:00;100597.53;;;22.26;100.00
74065;BME280;62421;51.412;5.432;2023-07-28T09:26:45;100598.94;;;22.37;100.00
74065;BME280;62421;51.412;5.432;2023-07-28T09:29:18;100600.47;;;22.39;100.00
74065;BME280;62421;51.412;5.432;2023-07-28T09:31:45;100601.84;;;22.50;100.00
74065;BME280;62421;51.412;5.432;2023-07-28T09:34:11;100602.09;;;22.70;100.00
74065;BME280;62421;51.412;5.432;2023-07-28T09:36:39;100595.31;;;22.87;100.00
74065;BME280;62421;51.412;5.432;2023-07-28T09:39:06;100610.69;;;23.03;100.00
74065;BME280;62421;51.412;5.432;2023-07-28T09:41:35;100611.66;;;23.17;100.00
74065;BME280;62421;51.412;5.432;2023-07-28T09:44:04;100606.84;;;23.19;100.00
74065;BME280;62421;51.412;5.432;2023-07-28T09:46:33;100607.03;;;23.18;100.00
74065;BME280;62421;51.412;5.432;2023-07-28T09:49:04;100609.84;;;23.24;100.00
74065;BME280;62421;51.412;5.432;2023-07-28T09:51:31;100606.31;;;23.30;100.00
74065;BME280;62421;51.412;5.432;2023-07-28T09:54:20;100613.16;;;23.41;100.00
74065;BME280;62421;51.412;5.432;2023-07-28T09:56:57;100612.03;;;23.36;100.00
74065;BME280;62421;51.412;5.432;2023-07-28T09:59:28;100613.09;;;23.35;100.00
74065;BME280;62421;51.412;5.432;2023-07-28T10:01:57;100616.72;;;23.42;100.00
74065;BME280;62421;51.412;5.432;2023-07-28T10:04:23;100608.88;;;23.60;100.00
74065;BME280;62421;51.412;5.432;2023-07-28T10:06:49;100618.72;;;23.76;100.00
74065;BME280;62421;51.412;5.432;2023-07-28T10:09:15;100615.16;;;23.76;99.38
74065;BME280;62421;51.412;5.432;2023-07-28T10:11:42;100621.56;;;23.68;99.72
74065;BME280;62421;51.412;5.432;2023-07-28T10:14:07;100619.56;;;23.55;100.00
74065;BME280;62421;51.412;5.432;2023-07-28T10:16:39;100612.28;;;23.62;100.00
74065;BME280;62421;51.412;5.432;2023-07-28T10:19:05;100616.38;;;23.73;100.00
74065;BME280;62421;51.412;5.432;2023-07-28T10:21:31;100612.97;;;23.71;100.00
74065;BME280;62421;51.412;5.432;2023-07-28T10:24:00;100622.97;;;23.79;100.00
74065;BME280;62421;51.412;5.432;2023-07-28T10:26:36;100623.00;;;23.85;100.00
74065;BME280;62421;51.412;5.432;2023-07-28T10:29:12;100626.88;;;23.98;100.00
74065;BME280;62421;51.412;5.432;2023-07-28T10:31:52;100619.19;;;24.15;98.95
74065;BME280;62421;51.412;5.432;2023-07-28T10:34:18;100616.94;;;24.25;97.91
74065;BME280;62421;51.412;5.432;2023-07-28T10:36:44;100612.78;;;24.36;94.10
74065;BME280;62421;51.412;5.432;2023-07-28T10:39:15;100605.25;;;24.51;97.45
74065;BME280;62421;51.412;5.432;2023-07-28T10:42:05;100594.88;;;24.46;99.13
74065;BME280;62421;51.412;5.432;2023-07-28T10:44:31;100607.31;;;24.42;94.62
74065;BME280;62421;51.412;5.432;2023-07-28T10:46:57;100607.19;;;24.50;91.97
74065;BME280;62421;51.412;5.432;2023-07-28T10:49:24;100612.91;;;24.62;91.30
74065;BME280;62421;51.412;5.432;2023-07-28T10:51:50;100610.22;;;24.82;89.35
74065;BME280;62421;51.412;5.432;2023-07-28T10:54:15;100606.72;;;25.08;89.25
74065;BME280;62421;51.412;5.432;2023-07-28T10:56:46;100612.84;;;25.17;83.69
74065;BME280;62421;51.412;5.432;2023-07-28T10:59:11;100609.06;;;25.25;87.79
74065;BME280;62421;51.412;5.432;2023-07-28T11:01:38;100604.84;;;25.36;87.81
74065;BME280;62421;51.412;5.432;2023-07-28T11:06:32;100601.69;;;25.39;84.47
74065;BME280;62421;51.412;5.432;2023-07-28T11:08:57;100605.00;;;25.14;85.32
74065;BME280;62421;51.412;5.432;2023-07-28T11:11:23;100605.81;;;24.88;88.06
74065;BME280;62421;51.412;5.432;2023-07-28T11:13:49;100604.94;;;24.74;86.94
74065;BME280;62421;51.412;5.432;2023-07-28T11:16:14;100599.81;;;24.64;88.36
74065;BME280;62421;51.412;5.432;2023-07-28T11:18:39;100601.25;;;24.53;90.46
74065;BME280;62421;51.412;5.432;2023-07-28T11:21:05;100599.31;;;24.47;88.48
74065;BME280;62421;51.412;5.432;2023-07-28T11:23:30;100607.00;;;24.59;91.34
74065;BME280;62421;51.412;5.432;2023-07-28T11:25:56;100599.34;;;24.54;86.60
74065;BME280;62421;51.412;5.432;2023-07-28T11:28:22;100599.81;;;24.64;91.43
74065;BME280;62421;51.412;5.432;2023-07-28T11:30:47;100594.44;;;24.91;88.52
74065;BME280;62421;51.412;5.432;2023-07-28T11:33:13;100594.25;;;25.19;88.98
74065;BME280;62421;51.412;5.432;2023-07-28T11:35:39;100601.91;;;25.44;89.25
74065;BME280;62421;51.412;5.432;2023-07-28T11:38:05;100600.19;;;25.69;93.70
74065;BME280;62421;51.412;5.432;2023-07-28T11:40:33;100604.00;;;25.88;85.30
74065;BME280;62421;51.412;5.432;2023-07-28T11:42:59;100606.94;;;25.87;79.99
74065;BME280;62421;51.412;5.432;2023-07-28T11:45:24;100604.03;;;25.68;83.64
74065;BME280;62421;51.412;5.432;2023-07-28T11:50:25;100605.00;;;25.14;87.53
74065;BME280;62421;51.412;5.432;2023-07-28T11:52:50;100604.94;;;24.81;91.54
74065;BME280;62421;51.412;5.432;2023-07-28T11:55:16;100600.00;;;24.56;90.31
74065;BME280;62421;51.412;5.432;2023-07-28T11:57:43;100604.94;;;24.32;88.51
74065;BME280;62421;51.412;5.432;2023-07-28T12:00:08;100610.53;;;24.18;94.73
74065;BME280;62421;51.412;5.432;2023-07-28T12:02:34;100612.03;;;24.14;94.07
74065;BME280;62421;51.412;5.432;2023-07-28T12:05:00;100609.47;;;24.12;93.88
74065;BME280;62421;51.412;5.432;2023-07-28T12:07:31;100600.41;;;24.11;96.72
74065;BME280;62421;51.412;5.432;2023-07-28T12:10:02;100605.06;;;24.18;91.94
74065;BME280;62421;51.412;5.432;2023-07-28T12:12:29;100601.50;;;24.24;91.24
74065;BME280;62421;51.412;5.432;2023-07-28T12:14:57;100612.97;;;24.34;92.30
74065;BME280;62421;51.412;5.432;2023-07-28T12:17:29;100613.84;;;24.41;89.13
74065;BME280;62421;51.412;5.432;2023-07-28T12:22:20;100613.38;;;24.31;87.36
74065;BME280;62421;51.412;5.432;2023-07-28T12:24:45;100616.78;;;24.33;90.29
74065;BME280;62421;51.412;5.432;2023-07-28T12:27:10;100615.72;;;24.34;88.82
74065;BME280;62421;51.412;5.432;2023-07-28T12:29:38;100610.03;;;24.36;86.00
74065;BME280;62421;51.412;5.432;2023-07-28T12:32:04;100620.03;;;24.50;90.98
74065;BME280;62421;51.412;5.432;2023-07-28T12:34:29;100620.97;;;24.70;89.41
74065;BME280;62421;51.412;5.432;2023-07-28T12:36:55;100629.03;;;24.79;85.10
74065;BME280;62421;51.412;5.432;2023-07-28T12:39:20;100610.44;;;24.74;85.54
74065;BME280;62421;51.412;5.432;2023-07-28T12:41:45;100616.59;;;24.89;88.05
74065;BME280;62421;51.412;5.432;2023-07-28T12:44:11;100616.22;;;25.12;85.41
74065;BME280;62421;51.412;5.432;2023-07-28T12:46:36;100620.06;;;25.31;83.03
74065;BME280;62421;51.412;5.432;2023-07-28T12:49:03;100620.50;;;25.55;82.97
74065;BME280;62421;51.412;5.432;2023-07-28T12:51:29;100621.53;;;25.81;82.64